createdAt,value
2022-11-19T00:01:34.656Z,-2.50
2022-11-19T00:04:02.501Z,-2.50
2022-11-19T00:06:30.275Z,-2.60
2022-11-19T00:08:58.036Z,-2.70
2022-11-19T00:11:46.225Z,-2.70
2022-11-19T00:14:15.527Z,-2.80
2022-11-19T00:16:44.225Z,-2.80
2022-11-19T00:19:12.747Z,-2.90
2022-11-19T00:21:40.784Z,-2.90
2022-11-19T00:24:09.052Z,-2.96
2022-11-19T00:26:36.836Z,-3.00
2022-11-19T00:29:04.679Z,-3.00
2022-11-19T00:31:32.521Z,-3.06
2022-11-19T00:34:00.385Z,-3.10
2022-11-19T00:36:28.255Z,-3.10
2022-11-19T00:38:56.224Z,-3.10
2022-11-19T00:41:23.968Z,-3.18
2022-11-19T00:43:51.779Z,-3.20
2022-11-19T00:46:22.281Z,-3.20
2022-11-19T00:48:51.888Z,-3.20
2022-11-19T00:51:20.775Z,-3.20
2022-11-19T00:53:48.743Z,-3.20
2022-11-19T00:56:19.388Z,-3.20
2022-11-19T00:58:47.208Z,-3.20
2022-11-19T01:01:16.055Z,-3.20
2022-11-19T01:03:46.045Z,-3.20
2022-11-19T01:06:18.836Z,-3.22
2022-11-19T01:08:48.640Z,-3.28
2022-11-19T01:11:24.911Z,-3.28
2022-11-19T01:13:52.737Z,-3.30
2022-11-19T01:16:24.307Z,-3.28
2022-11-19T01:18:52.283Z,-3.28
2022-11-19T01:21:22.107Z,-3.20
2022-11-19T01:23:50.405Z,-3.20
2022-11-19T01:26:18.486Z,-3.20
2022-11-19T01:28:46.576Z,-3.20
2022-11-19T01:31:19.564Z,-3.20
2022-11-19T01:33:47.705Z,-3.20
2022-11-19T01:36:33.376Z,-3.20
2022-11-19T01:39:01.131Z,-3.20
2022-11-19T01:41:31.247Z,-3.20
2022-11-19T01:44:01.558Z,-3.20
2022-11-19T01:46:32.126Z,-3.20
2022-11-19T01:49:10.023Z,-3.22
2022-11-19T01:51:57.472Z,-3.30
2022-11-19T01:54:33.996Z,-3.24
2022-11-19T01:57:03.693Z,-3.20
2022-11-19T01:59:31.424Z,-3.24
2022-11-19T02:01:59.229Z,-3.30
2022-11-19T02:04:27.086Z,-3.38
2022-11-19T02:06:54.994Z,-3.40
2022-11-19T02:09:24.770Z,-3.40
2022-11-19T02:12:20.175Z,-3.42
2022-11-19T02:15:15.815Z,-3.46
2022-11-19T02:18:28.039Z,-3.50
2022-11-19T02:21:03.854Z,-3.50
2022-11-19T02:24:29.006Z,-3.50
2022-11-19T02:27:20.924Z,-3.50
2022-11-19T02:30:08.138Z,-3.50
2022-11-19T02:32:44.985Z,-3.40
2022-11-19T02:35:28.463Z,-3.40
2022-11-19T02:38:02.748Z,-3.40
2022-11-19T02:40:37.148Z,-3.40
2022-11-19T02:43:17.211Z,-3.40
2022-11-19T02:45:50.597Z,-3.44
2022-11-19T02:48:23.305Z,-3.50
2022-11-19T02:50:56.471Z,-3.50
2022-11-19T02:53:24.359Z,-3.50
2022-11-19T02:56:11.045Z,-3.50
2022-11-19T02:59:10.955Z,-3.50
2022-11-19T03:02:00.270Z,-3.40
2022-11-19T03:04:30.961Z,-3.40
2022-11-19T03:07:11.186Z,-3.40
2022-11-19T03:09:46.263Z,-3.40
2022-11-19T03:12:28.350Z,-3.38
2022-11-19T03:16:02.716Z,-3.30
2022-11-19T03:18:39.407Z,-3.30
2022-11-19T03:21:16.230Z,-3.30
2022-11-19T03:23:49.710Z,-3.20
2022-11-19T03:26:34.069Z,-3.20
2022-11-19T03:29:08.729Z,-3.20
2022-11-19T03:31:36.486Z,-3.20
2022-11-19T03:34:09.858Z,-3.20
2022-11-19T03:36:39.950Z,-3.20
2022-11-19T03:39:11.729Z,-3.20
2022-11-19T03:41:40.769Z,-3.20
2022-11-19T03:44:25.781Z,-3.20
2022-11-19T03:47:00.602Z,-3.22
2022-11-19T03:49:33.637Z,-3.30
2022-11-19T03:52:13.934Z,-3.30
2022-11-19T03:54:41.920Z,-3.34
2022-11-19T03:57:12.819Z,-3.30
2022-11-19T03:59:40.658Z,-3.34
2022-11-19T04:02:10.030Z,-3.40
2022-11-19T04:04:39.042Z,-3.40
2022-11-19T04:07:18.587Z,-3.40
2022-11-19T04:09:46.444Z,-3.40
2022-11-19T04:12:20.556Z,-3.36
2022-11-19T04:14:48.848Z,-3.30
2022-11-19T04:17:16.832Z,-3.30
2022-11-19T04:19:44.855Z,-3.30
2022-11-19T04:22:12.678Z,-3.30
2022-11-19T04:24:40.490Z,-3.30
2022-11-19T04:27:08.255Z,-3.30
2022-11-19T04:29:36.053Z,-3.30
2022-11-19T04:32:04.018Z,-3.30
2022-11-19T04:34:31.790Z,-3.24
2022-11-19T04:36:59.539Z,-3.24
2022-11-19T04:39:27.340Z,-3.28
2022-11-19T04:41:55.080Z,-3.20
2022-11-19T04:44:22.925Z,-3.20
2022-11-19T04:46:50.678Z,-3.10
2022-11-19T04:49:18.703Z,-3.10
2022-11-19T04:51:46.710Z,-3.00
2022-11-19T04:54:14.446Z,-3.00
2022-11-19T04:56:42.332Z,-2.90
2022-11-19T04:59:10.070Z,-2.90
2022-11-19T05:01:38.013Z,-2.82
2022-11-19T05:04:05.892Z,-2.80
2022-11-19T05:06:33.690Z,-2.80
2022-11-19T05:09:01.468Z,-2.76
2022-11-19T05:11:29.193Z,-2.70
2022-11-19T05:13:56.958Z,-2.70
2022-11-19T05:16:24.744Z,-2.68
2022-11-19T05:18:52.523Z,-2.70
2022-11-19T05:21:20.270Z,-2.60
2022-11-19T05:23:48.110Z,-2.60
2022-11-19T05:26:15.925Z,-2.60
2022-11-19T05:28:43.692Z,-2.60
2022-11-19T05:31:11.468Z,-2.60
2022-11-19T05:33:39.190Z,-2.60
2022-11-19T05:36:07.626Z,-2.60
2022-11-19T05:38:35.440Z,-2.60
2022-11-19T05:41:03.229Z,-2.60
2022-11-19T05:43:30.953Z,-2.64
2022-11-19T05:46:02.294Z,-2.60
2022-11-19T05:48:30.112Z,-2.60
2022-11-19T05:50:57.891Z,-2.60
2022-11-19T05:53:26.355Z,-2.60
2022-11-19T05:55:54.109Z,-2.60
2022-11-19T05:58:21.861Z,-2.68
2022-11-19T06:00:55.307Z,-2.70
2022-11-19T06:03:23.107Z,-2.70
2022-11-19T06:05:50.934Z,-2.72
2022-11-19T06:08:18.761Z,-2.80
2022-11-19T06:10:46.476Z,-2.80
2022-11-19T06:13:14.240Z,-2.70
2022-11-19T06:15:41.966Z,-2.70
2022-11-19T06:18:09.794Z,-2.60
2022-11-19T06:20:37.676Z,-2.62
2022-11-19T06:23:05.431Z,-2.60
2022-11-19T06:25:33.226Z,-2.60
2022-11-19T06:28:01.009Z,-2.70
2022-11-19T06:30:28.833Z,-2.70
2022-11-19T06:32:56.688Z,-2.70
2022-11-19T06:35:24.491Z,-2.62
2022-11-19T06:37:52.279Z,-2.60
2022-11-19T06:40:20.044Z,-2.60
2022-11-19T06:42:50.958Z,-2.58
2022-11-19T06:45:19.171Z,-2.50
2022-11-19T06:47:47.575Z,-2.48
2022-11-19T06:50:15.420Z,-2.40
2022-11-19T06:52:43.183Z,-2.40
2022-11-19T06:55:11.114Z,-2.40
2022-11-19T06:57:38.902Z,-2.40
2022-11-19T07:00:07.796Z,-2.40
2022-11-19T07:02:35.614Z,-2.32
2022-11-19T07:05:04.766Z,-2.30
2022-11-19T07:07:32.617Z,-2.30
2022-11-19T07:10:01.096Z,-2.30
2022-11-19T07:12:28.911Z,-2.30
2022-11-19T07:15:02.650Z,-2.30
2022-11-19T07:17:32.167Z,-2.30
2022-11-19T07:20:00.123Z,-2.30
2022-11-19T07:22:27.970Z,-2.40
2022-11-19T07:24:56.822Z,-2.40
2022-11-19T07:27:24.702Z,-2.40
2022-11-19T07:29:52.450Z,-2.40
2022-11-19T07:32:20.219Z,-2.40
2022-11-19T07:34:48.039Z,-2.40
2022-11-19T07:37:15.845Z,-2.40
2022-11-19T07:39:43.663Z,-2.30
2022-11-19T07:42:30.071Z,-2.22
2022-11-19T07:44:57.840Z,-2.18
2022-11-19T07:47:25.660Z,-2.10
2022-11-19T07:49:54.409Z,-2.00
2022-11-19T07:52:22.486Z,-2.00
2022-11-19T07:54:50.300Z,-2.00
2022-11-19T07:57:18.107Z,-1.90
2022-11-19T07:59:45.974Z,-1.90
2022-11-19T08:02:14.060Z,-1.86
2022-11-19T08:04:42.877Z,-1.80
2022-11-19T08:07:10.702Z,-1.70
2022-11-19T08:09:38.595Z,-1.70
2022-11-19T08:12:06.638Z,-1.62
2022-11-19T08:14:34.418Z,-1.60
2022-11-19T08:17:21.061Z,-1.58
2022-11-19T08:19:48.812Z,-1.50
2022-11-19T08:22:16.553Z,-1.40
2022-11-19T08:24:44.707Z,-1.40
2022-11-19T08:27:13.091Z,-1.30
2022-11-19T08:29:40.905Z,-1.30
2022-11-19T08:32:10.725Z,-1.26
2022-11-19T08:34:38.594Z,-1.20
2022-11-19T08:37:06.359Z,-1.20
2022-11-19T08:39:34.129Z,-1.20
2022-11-19T08:42:20.690Z,-1.10
2022-11-19T08:44:48.445Z,-1.08
2022-11-19T08:47:16.444Z,-1.00
2022-11-19T08:49:44.218Z,-1.00
2022-11-19T08:52:13.458Z,-0.98
2022-11-19T08:54:41.245Z,-0.90
2022-11-19T08:57:09.013Z,-0.80
2022-11-19T08:59:36.772Z,-0.80
2022-11-19T09:02:04.560Z,-0.70
2022-11-19T09:04:32.451Z,-0.60
2022-11-19T09:07:00.224Z,-0.50
2022-11-19T09:09:28.070Z,-0.40
2022-11-19T09:11:56.105Z,-0.32
2022-11-19T09:14:23.887Z,-0.30
2022-11-19T09:16:51.694Z,-0.30
2022-11-19T09:19:19.686Z,-0.30
2022-11-19T09:21:47.546Z,-0.30
2022-11-19T09:24:15.327Z,-0.22
2022-11-19T09:26:44.217Z,-0.20
2022-11-19T09:29:14.355Z,-0.20
2022-11-19T09:31:42.067Z,-0.20
2022-11-19T09:34:09.816Z,-0.10
2022-11-19T09:36:37.622Z,-0.10
2022-11-19T09:39:05.457Z,-0.10
2022-11-19T09:41:48.862Z,-0.02
2022-11-19T09:44:29.139Z,-0.10
2022-11-19T09:47:27.355Z,-0.14
2022-11-19T09:50:17.028Z,-0.10
2022-11-19T09:53:16.020Z,-0.10
2022-11-19T09:55:45.888Z,-0.10
2022-11-19T09:58:35.046Z,-0.10
2022-11-19T10:01:03.020Z,-0.20
2022-11-19T10:03:33.867Z,-0.20
2022-11-19T10:06:14.456Z,-0.10
2022-11-19T10:09:27.788Z,0.00
2022-11-19T10:12:33.136Z,0.00
2022-11-19T10:15:18.493Z,0.00
2022-11-19T10:18:05.582Z,0.00
2022-11-19T10:21:00.225Z,0.10
2022-11-19T10:23:50.235Z,0.02
2022-11-19T10:26:21.489Z,0.00
2022-11-19T10:28:55.205Z,0.00
2022-11-19T10:31:28.337Z,0.16
2022-11-19T10:34:11.196Z,0.28
2022-11-19T10:36:50.936Z,0.20
2022-11-19T10:39:48.013Z,0.24
2022-11-19T10:42:36.918Z,0.30
2022-11-19T10:45:19.267Z,0.40
2022-11-19T10:48:12.888Z,0.30
2022-11-19T10:50:42.103Z,0.30
2022-11-19T10:53:29.258Z,0.30
2022-11-19T10:56:01.924Z,0.30
2022-11-19T10:58:34.132Z,0.30
2022-11-19T11:01:03.357Z,0.30
2022-11-19T11:03:37.034Z,0.30
2022-11-19T11:06:07.647Z,0.30
2022-11-19T11:08:52.773Z,0.40
2022-11-19T11:11:50.430Z,0.40
2022-11-19T11:14:41.630Z,0.50
2022-11-19T11:17:25.852Z,0.50
2022-11-19T11:20:06.734Z,0.50
2022-11-19T11:22:34.512Z,0.54
2022-11-19T11:25:07.053Z,0.52
2022-11-19T11:27:35.391Z,0.52
2022-11-19T11:30:13.611Z,0.52
2022-11-19T11:32:41.787Z,0.60
2022-11-19T11:35:36.175Z,0.60
2022-11-19T11:38:04.032Z,0.60
2022-11-19T11:40:31.797Z,0.60
2022-11-19T11:42:59.568Z,0.60
2022-11-19T11:45:32.524Z,0.76
2022-11-19T11:48:19.051Z,0.78
2022-11-19T11:50:47.047Z,0.80
2022-11-19T11:53:16.590Z,0.80
2022-11-19T11:55:44.386Z,0.90
2022-11-19T11:58:33.632Z,0.90
2022-11-19T12:01:18.512Z,0.82
2022-11-19T12:03:57.657Z,0.80
2022-11-19T12:06:45.220Z,0.80
2022-11-19T12:09:24.788Z,0.80
2022-11-19T12:12:05.552Z,0.80
2022-11-19T12:14:50.074Z,0.80
2022-11-19T12:17:33.456Z,0.80
2022-11-19T12:20:22.637Z,0.70
2022-11-19T12:23:38.279Z,0.66
2022-11-19T12:26:18.701Z,0.70
2022-11-19T12:29:03.472Z,0.70
2022-11-19T12:32:09.574Z,0.72
2022-11-19T12:35:16.634Z,0.74
2022-11-19T12:38:09.578Z,0.70
2022-11-19T12:40:59.000Z,0.70
2022-11-19T12:43:52.162Z,0.80
2022-11-19T12:46:52.934Z,0.80
2022-11-19T12:49:32.803Z,0.70
2022-11-19T12:52:35.941Z,0.70
2022-11-19T12:55:12.924Z,0.70
2022-11-19T12:57:52.045Z,0.72
2022-11-19T13:00:24.428Z,0.74
2022-11-19T13:03:16.652Z,0.70
2022-11-19T13:05:56.375Z,0.70
2022-11-19T13:08:30.455Z,0.70
2022-11-19T13:11:15.407Z,0.64
2022-11-19T13:14:26.964Z,0.60
2022-11-19T13:16:54.837Z,0.60
2022-11-19T13:19:29.667Z,0.60
2022-11-19T13:22:06.439Z,0.54
2022-11-19T13:24:45.572Z,0.50
2022-11-19T13:27:23.039Z,0.50
2022-11-19T13:30:26.959Z,0.40
2022-11-19T13:33:24.983Z,0.40
2022-11-19T13:36:19.853Z,0.40
2022-11-19T13:38:53.316Z,0.30
2022-11-19T13:42:07.844Z,0.28
2022-11-19T13:44:41.107Z,0.20
2022-11-19T13:47:24.322Z,0.12
2022-11-19T13:50:02.296Z,0.10
2022-11-19T13:52:34.759Z,0.10
2022-11-19T13:55:02.571Z,0.00
2022-11-19T13:57:42.686Z,-0.02
2022-11-19T14:00:25.101Z,-0.10
2022-11-19T14:03:17.838Z,-0.20
2022-11-19T14:06:36.749Z,-0.22
2022-11-19T14:09:39.022Z,-0.30
2022-11-19T14:12:54.320Z,-0.40
2022-11-19T14:16:16.725Z,-0.46
2022-11-19T14:19:05.904Z,-0.50
2022-11-19T14:21:52.573Z,-0.50
2022-11-19T14:24:45.377Z,-0.50
2022-11-19T14:27:17.262Z,-0.60
2022-11-19T14:29:45.036Z,-0.70
2022-11-19T14:32:12.822Z,-0.80
2022-11-19T14:35:02.054Z,-0.90
2022-11-19T14:37:46.878Z,-1.00
2022-11-19T14:40:20.987Z,-1.00
2022-11-19T14:43:19.999Z,-1.10
2022-11-19T14:46:07.690Z,-1.10
2022-11-19T14:48:41.687Z,-1.20
2022-11-19T14:51:37.571Z,-1.20
2022-11-19T14:54:14.484Z,-1.20
2022-11-19T14:56:46.042Z,-1.24
2022-11-19T14:59:16.905Z,-1.30
2022-11-19T15:02:26.857Z,-1.40
2022-11-19T15:05:13.051Z,-1.50
2022-11-19T15:07:45.257Z,-1.60
2022-11-19T15:10:13.116Z,-1.60
2022-11-19T15:12:43.994Z,-1.70
2022-11-19T15:15:21.078Z,-1.76
2022-11-19T15:18:02.439Z,-1.80
2022-11-19T15:20:37.801Z,-1.90
2022-11-19T15:23:38.968Z,-1.90
2022-11-19T15:27:05.422Z,-1.92
2022-11-19T15:30:06.790Z,-1.92
2022-11-19T15:32:56.568Z,-2.00
2022-11-19T15:36:04.617Z,-2.00
2022-11-19T15:39:04.816Z,-2.00
2022-11-19T15:41:38.372Z,-2.00
2022-11-19T15:44:09.719Z,-2.00
2022-11-19T15:46:48.750Z,-2.00
2022-11-19T15:49:23.637Z,-2.00
2022-11-19T15:52:01.875Z,-2.00
2022-11-19T15:54:34.477Z,-2.00
2022-11-19T15:57:22.293Z,-2.00
2022-11-19T15:59:59.893Z,-2.00
2022-11-19T16:02:37.233Z,-2.00
2022-11-19T16:05:06.527Z,-2.00
2022-11-19T16:07:34.373Z,-2.00
2022-11-19T16:10:02.254Z,-2.00
2022-11-19T16:12:49.148Z,-2.00
2022-11-19T16:15:45.087Z,-2.10
2022-11-19T16:18:18.264Z,-2.10
2022-11-19T16:20:48.657Z,-2.10
2022-11-19T16:23:21.362Z,-2.14
2022-11-19T16:25:49.302Z,-2.20
2022-11-19T16:28:30.513Z,-2.20
2022-11-19T16:31:03.229Z,-2.20
2022-11-19T16:33:32.465Z,-2.20
2022-11-19T16:36:15.305Z,-2.20
2022-11-19T16:38:46.539Z,-2.24
2022-11-19T16:41:35.404Z,-2.30
2022-11-19T16:44:05.486Z,-2.30
2022-11-19T16:46:34.112Z,-2.40
2022-11-19T16:49:03.651Z,-2.40
2022-11-19T16:51:37.510Z,-2.50
2022-11-19T16:54:10.285Z,-2.60
2022-11-19T16:56:44.510Z,-2.60
2022-11-19T16:59:21.528Z,-2.70
2022-11-19T17:01:56.769Z,-2.70
2022-11-19T17:04:28.283Z,-2.70
2022-11-19T17:06:58.929Z,-2.70
2022-11-19T17:09:41.639Z,-2.70
2022-11-19T17:12:30.028Z,-2.66
2022-11-19T17:14:59.766Z,-2.68
2022-11-19T17:17:41.544Z,-2.70
2022-11-19T17:20:32.187Z,-2.70
2022-11-19T17:23:00.264Z,-2.70
2022-11-19T17:25:28.096Z,-2.72
2022-11-19T17:27:58.979Z,-2.80
2022-11-19T17:30:31.709Z,-2.80
2022-11-19T17:33:01.710Z,-2.90
2022-11-19T17:35:40.487Z,-2.90
2022-11-19T17:38:20.310Z,-2.92
2022-11-19T17:40:53.176Z,-2.90
2022-11-19T17:43:55.692Z,-2.90
2022-11-19T17:46:25.452Z,-2.90
2022-11-19T17:48:53.520Z,-2.90
2022-11-19T17:51:23.374Z,-2.90
2022-11-19T17:53:51.949Z,-2.90
2022-11-19T17:56:29.812Z,-2.90
2022-11-19T17:58:59.801Z,-3.00
2022-11-19T18:01:27.991Z,-3.00
2022-11-19T18:03:55.982Z,-3.10
2022-11-19T18:06:23.795Z,-3.10
2022-11-19T18:08:51.643Z,-3.20
2022-11-19T18:11:22.343Z,-3.20
2022-11-19T18:13:52.461Z,-3.20
2022-11-19T18:16:25.681Z,-3.20
2022-11-19T18:18:53.469Z,-3.20
2022-11-19T18:21:22.368Z,-3.20
2022-11-19T18:23:51.509Z,-3.20
2022-11-19T18:26:22.512Z,-3.28
2022-11-19T18:28:50.350Z,-3.30
2022-11-19T18:31:25.375Z,-3.30
2022-11-19T18:33:54.589Z,-3.38
2022-11-19T18:36:22.792Z,-3.40
2022-11-19T18:38:51.834Z,-3.30
2022-11-19T18:41:19.862Z,-3.30
2022-11-19T18:44:06.646Z,-3.30
2022-11-19T18:46:34.604Z,-3.30
2022-11-19T18:49:02.661Z,-3.30
2022-11-19T18:51:31.169Z,-3.30
2022-11-19T18:53:59.017Z,-3.30
2022-11-19T18:56:27.251Z,-3.40
2022-11-19T18:58:56.424Z,-3.40
2022-11-19T19:01:26.056Z,-3.40
2022-11-19T19:03:53.931Z,-3.40
2022-11-19T19:06:23.244Z,-3.40
2022-11-19T19:08:51.181Z,-3.40
2022-11-19T19:11:37.588Z,-3.48
2022-11-19T19:14:05.497Z,-3.50
2022-11-19T19:16:34.856Z,-3.54
2022-11-19T19:19:03.533Z,-3.60
2022-11-19T19:21:31.751Z,-3.60
2022-11-19T19:23:59.594Z,-3.60
2022-11-19T19:26:27.460Z,-3.60
2022-11-19T19:28:55.323Z,-3.60
2022-11-19T19:31:23.511Z,-3.60
2022-11-19T19:33:51.622Z,-3.60
2022-11-19T19:36:20.151Z,-3.60
2022-11-19T19:38:48.030Z,-3.60
2022-11-19T19:41:25.614Z,-3.60
2022-11-19T19:43:55.036Z,-3.60
2022-11-19T19:46:23.761Z,-3.60
2022-11-19T19:48:53.468Z,-3.60
2022-11-19T19:51:23.674Z,-3.60
2022-11-19T19:53:52.640Z,-3.58
2022-11-19T19:56:31.546Z,-3.50
2022-11-19T19:59:00.033Z,-3.50
2022-11-19T20:01:33.080Z,-3.50
2022-11-19T20:04:10.014Z,-3.50
2022-11-19T20:06:41.628Z,-3.50
2022-11-19T20:09:09.844Z,-3.50
2022-11-19T20:11:37.840Z,-3.50
2022-11-19T20:14:05.741Z,-3.50
2022-11-19T20:16:33.961Z,-3.54
2022-11-19T20:19:02.117Z,-3.60
2022-11-19T20:21:33.792Z,-3.60
2022-11-19T20:24:07.189Z,-3.60
2022-11-19T20:26:39.900Z,-3.60
2022-11-19T20:29:09.035Z,-3.60
2022-11-19T20:31:36.984Z,-3.66
2022-11-19T20:34:05.425Z,-3.70
2022-11-19T20:36:34.643Z,-3.70
2022-11-19T20:39:02.765Z,-3.80
2022-11-19T20:41:49.467Z,-3.80
2022-11-19T20:44:21.518Z,-3.80
2022-11-19T20:47:01.003Z,-3.82
2022-11-19T20:49:34.542Z,-3.84
2022-11-19T20:52:03.329Z,-3.80
2022-11-19T20:54:31.699Z,-3.80
2022-11-19T20:56:59.976Z,-3.80
2022-11-19T20:59:28.011Z,-3.76
2022-11-19T21:01:56.484Z,-3.70
2022-11-19T21:04:25.736Z,-3.74
2022-11-19T21:06:56.593Z,-3.80
2022-11-19T21:09:25.202Z,-3.80
2022-11-19T21:11:53.445Z,-3.80
2022-11-19T21:14:21.291Z,-3.80
2022-11-19T21:16:49.162Z,-3.80
2022-11-19T21:19:17.010Z,-3.80
2022-11-19T21:21:45.703Z,-3.80
2022-11-19T21:24:13.669Z,-3.80
2022-11-19T21:26:41.637Z,-3.86
2022-11-19T21:29:09.520Z,-3.90
2022-11-19T21:31:48.051Z,-3.90
2022-11-19T21:34:20.628Z,-3.92
2022-11-19T21:36:48.818Z,-4.00
2022-11-19T21:39:17.616Z,-4.00
2022-11-19T21:41:45.832Z,-4.00
2022-11-19T21:44:18.330Z,-4.06
2022-11-19T21:46:49.541Z,-4.10
2022-11-19T21:49:17.451Z,-4.10
2022-11-19T21:51:45.401Z,-4.14
2022-11-19T21:54:13.194Z,-4.14
2022-11-19T21:56:40.989Z,-4.18
2022-11-19T21:59:08.768Z,-4.20
2022-11-19T22:01:36.564Z,-4.20
2022-11-19T22:04:04.923Z,-4.20
2022-11-19T22:06:32.788Z,-4.20
2022-11-19T22:09:00.627Z,-4.20
2022-11-19T22:11:28.609Z,-4.18
2022-11-19T22:14:00.345Z,-4.10
2022-11-19T22:16:29.120Z,-4.10
2022-11-19T22:18:57.086Z,-4.10
2022-11-19T22:21:25.794Z,-4.20
2022-11-19T22:23:53.658Z,-4.20
2022-11-19T22:26:21.591Z,-4.20
2022-11-19T22:28:49.785Z,-4.30
2022-11-19T22:31:17.726Z,-4.30
2022-11-19T22:33:47.873Z,-4.30
2022-11-19T22:36:15.702Z,-4.30
2022-11-19T22:38:43.563Z,-4.30
2022-11-19T22:41:33.093Z,-4.26
2022-11-19T22:44:01.080Z,-4.28
2022-11-19T22:46:28.834Z,-4.30
2022-11-19T22:48:56.630Z,-4.30
2022-11-19T22:51:25.202Z,-4.30
2022-11-19T22:53:54.710Z,-4.30
2022-11-19T22:56:25.186Z,-4.30
2022-11-19T22:58:53.281Z,-4.20
2022-11-19T23:01:30.204Z,-4.20
2022-11-19T23:03:59.814Z,-4.20
2022-11-19T23:06:27.799Z,-4.20
2022-11-19T23:08:55.567Z,-4.20
2022-11-19T23:11:42.667Z,-4.20
2022-11-19T23:14:14.054Z,-4.20
2022-11-19T23:16:41.950Z,-4.30
2022-11-19T23:19:10.877Z,-4.30
2022-11-19T23:21:38.903Z,-4.38
2022-11-19T23:24:07.360Z,-4.40
2022-11-19T23:26:35.220Z,-4.42
2022-11-19T23:29:03.032Z,-4.44
2022-11-19T23:31:35.869Z,-4.50
2022-11-19T23:34:03.963Z,-4.50
2022-11-19T23:36:42.579Z,-4.50
2022-11-19T23:39:15.276Z,-4.50
2022-11-19T23:41:43.653Z,-4.60
2022-11-19T23:44:11.471Z,-4.60
2022-11-19T23:46:39.416Z,-4.60
2022-11-19T23:49:07.173Z,-4.60
2022-11-19T23:51:37.240Z,-4.60
2022-11-19T23:54:05.529Z,-4.62
2022-11-19T23:56:34.316Z,-4.66
2022-11-19T23:59:02.786Z,-4.68
